sensor_id;sensor_type;location;lat;lon;timestamp;P1;durP1;ratioP1;P2;durP2;ratioP2
17193;SDS011;8713;48.388;10.928;2022-12-20T00:00:55;14.52;;;7.60;;
17193;SDS011;8713;48.388;10.928;2022-12-20T00:02:24;12.15;;;7.22;;
17193;SDS011;8713;48.388;10.928;2022-12-20T00:03:55;10.80;;;6.72;;
17193;SDS011;8713;48.388;10.928;2022-12-20T00:05:27;13.80;;;7.78;;
17193;SDS011;8713;48.388;10.928;2022-12-20T00:06:57;14.00;;;8.32;;
17193;SDS011;8713;48.388;10.928;2022-12-20T00:08:27;15.95;;;9.02;;
17193;SDS011;8713;48.388;10.928;2022-12-20T00:09:57;16.65;;;9.63;;
17193;SDS011;8713;48.388;10.928;2022-12-20T00:11:09;15.43;;;8.77;;
17193;SDS011;8713;48.388;10.928;2022-12-20T00:12:19;14.85;;;9.02;;
17193;SDS011;8713;48.388;10.928;2022-12-20T00:13:28;16.17;;;8.43;;
17193;SDS011;8713;48.388;10.928;2022-12-20T00:14:38;19.65;;;8.52;;
17193;SDS011;8713;48.388;10.928;2022-12-20T00:15:47;19.38;;;9.80;;
17193;SDS011;8713;48.388;10.928;2022-12-20T00:16:56;17.67;;;9.50;;
17193;SDS011;8713;48.388;10.928;2022-12-20T00:18:06;16.13;;;9.15;;
17193;SDS011;8713;48.388;10.928;2022-12-20T00:19:15;15.38;;;8.90;;
17193;SDS011;8713;48.388;10.928;2022-12-20T00:20:25;15.00;;;8.95;;
17193;SDS011;8713;48.388;10.928;2022-12-20T00:21:54;15.07;;;8.25;;
17193;SDS011;8713;48.388;10.928;2022-12-20T00:23:04;13.80;;;8.07;;
17193;SDS011;8713;48.388;10.928;2022-12-20T00:24:13;17.02;;;9.15;;
17193;SDS011;8713;48.388;10.928;2022-12-20T00:25:23;13.05;;;8.15;;
17193;SDS011;8713;48.388;10.928;2022-12-20T00:26:33;14.10;;;7.95;;
17193;SDS011;8713;48.388;10.928;2022-12-20T00:27:43;12.88;;;7.78;;
17193;SDS011;8713;48.388;10.928;2022-12-20T00:28:53;12.68;;;7.57;;
17193;SDS011;8713;48.388;10.928;2022-12-20T00:30:03;13.43;;;7.38;;
17193;SDS011;8713;48.388;10.928;2022-12-20T00:31:14;13.98;;;7.95;;
17193;SDS011;8713;48.388;10.928;2022-12-20T00:32:26;12.70;;;7.45;;
17193;SDS011;8713;48.388;10.928;2022-12-20T00:33:36;11.82;;;7.05;;
17193;SDS011;8713;48.388;10.928;2022-12-20T00:34:47;12.18;;;7.60;;
17193;SDS011;8713;48.388;10.928;2022-12-20T00:35:57;13.48;;;7.78;;
17193;SDS011;8713;48.388;10.928;2022-12-20T00:37:07;12.07;;;7.13;;
17193;SDS011;8713;48.388;10.928;2022-12-20T00:38:36;11.60;;;7.20;;
17193;SDS011;8713;48.388;10.928;2022-12-20T00:40:04;12.75;;;7.07;;
17193;SDS011;8713;48.388;10.928;2022-12-20T00:41:35;14.45;;;7.25;;
17193;SDS011;8713;48.388;10.928;2022-12-20T00:43:05;11.48;;;6.72;;
17193;SDS011;8713;48.388;10.928;2022-12-20T00:44:34;14.82;;;7.53;;
17193;SDS011;8713;48.388;10.928;2022-12-20T00:46:05;15.18;;;7.43;;
17193;SDS011;8713;48.388;10.928;2022-12-20T00:47:36;13.88;;;7.00;;
17193;SDS011;8713;48.388;10.928;2022-12-20T00:49:05;13.23;;;6.82;;
17193;SDS011;8713;48.388;10.928;2022-12-20T00:50:35;12.57;;;6.72;;
17193;SDS011;8713;48.388;10.928;2022-12-20T00:52:05;19.40;;;8.82;;
17193;SDS011;8713;48.388;10.928;2022-12-20T00:53:35;16.92;;;8.70;;
17193;SDS011;8713;48.388;10.928;2022-12-20T00:55:05;16.20;;;8.02;;
17193;SDS011;8713;48.388;10.928;2022-12-20T00:56:35;14.27;;;8.27;;
17193;SDS011;8713;48.388;10.928;2022-12-20T00:58:04;16.25;;;8.00;;
17193;SDS011;8713;48.388;10.928;2022-12-20T00:59:34;12.00;;;7.28;;
17193;SDS011;8713;48.388;10.928;2022-12-20T01:01:04;11.73;;;6.80;;
17193;SDS011;8713;48.388;10.928;2022-12-20T01:02:42;15.10;;;7.30;;
17193;SDS011;8713;48.388;10.928;2022-12-20T01:04:12;15.82;;;6.97;;
17193;SDS011;8713;48.388;10.928;2022-12-20T01:05:51;13.40;;;6.93;;
17193;SDS011;8713;48.388;10.928;2022-12-20T01:07:25;15.05;;;7.55;;
17193;SDS011;8713;48.388;10.928;2022-12-20T01:08:55;15.98;;;8.80;;
17193;SDS011;8713;48.388;10.928;2022-12-20T01:10:26;15.48;;;8.57;;
17193;SDS011;8713;48.388;10.928;2022-12-20T01:11:55;13.93;;;7.72;;
17193;SDS011;8713;48.388;10.928;2022-12-20T01:13:26;13.30;;;7.32;;
17193;SDS011;8713;48.388;10.928;2022-12-20T01:14:56;13.40;;;7.45;;
17193;SDS011;8713;48.388;10.928;2022-12-20T01:16:30;15.38;;;7.53;;
17193;SDS011;8713;48.388;10.928;2022-12-20T01:18:03;13.20;;;8.40;;
17193;SDS011;8713;48.388;10.928;2022-12-20T01:19:33;13.35;;;8.27;;
17193;SDS011;8713;48.388;10.928;2022-12-20T01:21:03;16.13;;;8.95;;
17193;SDS011;8713;48.388;10.928;2022-12-20T01:22:36;15.65;;;7.80;;
17193;SDS011;8713;48.388;10.928;2022-12-20T01:24:07;12.18;;;7.28;;
17193;SDS011;8713;48.388;10.928;2022-12-20T01:25:37;12.43;;;7.45;;
17193;SDS011;8713;48.388;10.928;2022-12-20T01:27:07;12.15;;;6.88;;
17193;SDS011;8713;48.388;10.928;2022-12-20T01:28:37;12.13;;;6.20;;
17193;SDS011;8713;48.388;10.928;2022-12-20T01:30:09;10.10;;;5.97;;
17193;SDS011;8713;48.388;10.928;2022-12-20T01:31:39;12.13;;;6.30;;
17193;SDS011;8713;48.388;10.928;2022-12-20T01:33:09;11.10;;;6.28;;
17193;SDS011;8713;48.388;10.928;2022-12-20T01:34:39;12.00;;;7.00;;
17193;SDS011;8713;48.388;10.928;2022-12-20T01:36:13;13.02;;;7.55;;
17193;SDS011;8713;48.388;10.928;2022-12-20T01:37:45;12.05;;;6.80;;
17193;SDS011;8713;48.388;10.928;2022-12-20T01:39:15;9.30;;;5.50;;
17193;SDS011;8713;48.388;10.928;2022-12-20T01:40:45;10.60;;;6.15;;
17193;SDS011;8713;48.388;10.928;2022-12-20T01:42:14;11.63;;;6.50;;
17193;SDS011;8713;48.388;10.928;2022-12-20T01:43:46;12.25;;;6.43;;
17193;SDS011;8713;48.388;10.928;2022-12-20T01:45:27;12.05;;;6.72;;
17193;SDS011;8713;48.388;10.928;2022-12-20T01:46:58;10.25;;;6.00;;
17193;SDS011;8713;48.388;10.928;2022-12-20T01:48:28;11.55;;;6.72;;
17193;SDS011;8713;48.388;10.928;2022-12-20T01:49:58;11.93;;;6.22;;
17193;SDS011;8713;48.388;10.928;2022-12-20T01:51:29;12.27;;;7.13;;
17193;SDS011;8713;48.388;10.928;2022-12-20T01:53:01;14.23;;;7.80;;
17193;SDS011;8713;48.388;10.928;2022-12-20T01:54:34;11.40;;;6.85;;
17193;SDS011;8713;48.388;10.928;2022-12-20T01:56:07;12.30;;;6.85;;
17193;SDS011;8713;48.388;10.928;2022-12-20T01:57:45;13.35;;;7.18;;
17193;SDS011;8713;48.388;10.928;2022-12-20T01:59:27;10.32;;;6.45;;
17193;SDS011;8713;48.388;10.928;2022-12-20T02:00:57;11.05;;;5.63;;
17193;SDS011;8713;48.388;10.928;2022-12-20T02:02:27;12.05;;;5.63;;
17193;SDS011;8713;48.388;10.928;2022-12-20T02:03:56;9.68;;;5.53;;
17193;SDS011;8713;48.388;10.928;2022-12-20T02:05:26;10.48;;;5.75;;
17193;SDS011;8713;48.388;10.928;2022-12-20T02:06:56;12.23;;;6.65;;
17193;SDS011;8713;48.388;10.928;2022-12-20T02:08:26;10.23;;;5.90;;
17193;SDS011;8713;48.388;10.928;2022-12-20T02:09:55;9.88;;;6.25;;
17193;SDS011;8713;48.388;10.928;2022-12-20T02:11:39;11.73;;;6.60;;
17193;SDS011;8713;48.388;10.928;2022-12-20T02:13:46;8.23;;;5.32;;
17193;SDS011;8713;48.388;10.928;2022-12-20T02:19:42;11.32;;;7.07;;
17193;SDS011;8713;48.388;10.928;2022-12-20T02:21:37;10.20;;;6.28;;
17193;SDS011;8713;48.388;10.928;2022-12-20T02:28:13;10.27;;;6.10;;
17193;SDS011;8713;48.388;10.928;2022-12-20T02:30:18;10.50;;;5.55;;
17193;SDS011;8713;48.388;10.928;2022-12-20T02:33:33;11.23;;;6.97;;
17193;SDS011;8713;48.388;10.928;2022-12-20T02:35:03;12.77;;;6.97;;
17193;SDS011;8713;48.388;10.928;2022-12-20T02:36:35;11.85;;;7.07;;
17193;SDS011;8713;48.388;10.928;2022-12-20T02:39:56;11.75;;;6.70;;
17193;SDS011;8713;48.388;10.928;2022-12-20T02:41:30;13.32;;;7.05;;
17193;SDS011;8713;48.388;10.928;2022-12-20T02:43:05;11.18;;;6.72;;
17193;SDS011;8713;48.388;10.928;2022-12-20T02:45:00;9.45;;;5.68;;
17193;SDS011;8713;48.388;10.928;2022-12-20T02:46:44;10.13;;;6.25;;
17193;SDS011;8713;48.388;10.928;2022-12-20T02:48:15;10.80;;;6.10;;
17193;SDS011;8713;48.388;10.928;2022-12-20T02:49:45;9.70;;;6.05;;
17193;SDS011;8713;48.388;10.928;2022-12-20T02:51:16;10.45;;;6.10;;
17193;SDS011;8713;48.388;10.928;2022-12-20T02:52:47;9.90;;;5.30;;
17193;SDS011;8713;48.388;10.928;2022-12-20T02:54:19;8.15;;;4.95;;
17193;SDS011;8713;48.388;10.928;2022-12-20T02:55:56;8.40;;;5.70;;
17193;SDS011;8713;48.388;10.928;2022-12-20T02:57:33;11.25;;;6.65;;
17193;SDS011;8713;48.388;10.928;2022-12-20T02:59:34;10.70;;;5.90;;
17193;SDS011;8713;48.388;10.928;2022-12-20T03:01:09;10.85;;;5.97;;
17193;SDS011;8713;48.388;10.928;2022-12-20T03:02:43;11.00;;;6.18;;
17193;SDS011;8713;48.388;10.928;2022-12-20T03:04:33;10.63;;;6.15;;
17193;SDS011;8713;48.388;10.928;2022-12-20T03:06:05;11.55;;;7.20;;
17193;SDS011;8713;48.388;10.928;2022-12-20T03:07:35;12.63;;;6.22;;
17193;SDS011;8713;48.388;10.928;2022-12-20T03:09:05;12.15;;;6.90;;
17193;SDS011;8713;48.388;10.928;2022-12-20T03:10:38;10.02;;;5.75;;
17193;SDS011;8713;48.388;10.928;2022-12-20T03:12:08;9.65;;;5.57;;
17193;SDS011;8713;48.388;10.928;2022-12-20T03:13:39;10.77;;;7.03;;
17193;SDS011;8713;48.388;10.928;2022-12-20T03:15:12;9.88;;;5.35;;
17193;SDS011;8713;48.388;10.928;2022-12-20T03:16:42;10.07;;;6.25;;
17193;SDS011;8713;48.388;10.928;2022-12-20T03:18:12;10.75;;;6.40;;
17193;SDS011;8713;48.388;10.928;2022-12-20T03:19:41;9.82;;;5.22;;
17193;SDS011;8713;48.388;10.928;2022-12-20T03:21:11;7.85;;;4.28;;
17193;SDS011;8713;48.388;10.928;2022-12-20T03:22:41;8.75;;;5.07;;
17193;SDS011;8713;48.388;10.928;2022-12-20T03:24:10;9.30;;;5.47;;
17193;SDS011;8713;48.388;10.928;2022-12-20T03:25:41;9.27;;;5.70;;
17193;SDS011;8713;48.388;10.928;2022-12-20T03:27:15;10.38;;;5.63;;
17193;SDS011;8713;48.388;10.928;2022-12-20T03:28:45;8.73;;;4.97;;
17193;SDS011;8713;48.388;10.928;2022-12-20T03:30:19;9.25;;;5.05;;
17193;SDS011;8713;48.388;10.928;2022-12-20T03:31:49;8.40;;;5.05;;
17193;SDS011;8713;48.388;10.928;2022-12-20T03:33:19;8.40;;;5.43;;
17193;SDS011;8713;48.388;10.928;2022-12-20T03:34:50;8.70;;;5.65;;
17193;SDS011;8713;48.388;10.928;2022-12-20T03:36:26;10.00;;;5.28;;
17193;SDS011;8713;48.388;10.928;2022-12-20T03:38:02;9.07;;;5.50;;
17193;SDS011;8713;48.388;10.928;2022-12-20T03:39:31;9.90;;;6.30;;
17193;SDS011;8713;48.388;10.928;2022-12-20T03:41:02;11.98;;;6.07;;
17193;SDS011;8713;48.388;10.928;2022-12-20T03:42:32;10.25;;;6.10;;
17193;SDS011;8713;48.388;10.928;2022-12-20T03:44:01;8.45;;;5.20;;
17193;SDS011;8713;48.388;10.928;2022-12-20T03:45:31;6.97;;;5.00;;
17193;SDS011;8713;48.388;10.928;2022-12-20T03:47:01;8.27;;;5.22;;
17193;SDS011;8713;48.388;10.928;2022-12-20T03:48:32;9.38;;;5.55;;
17193;SDS011;8713;48.388;10.928;2022-12-20T03:50:02;10.02;;;5.75;;
17193;SDS011;8713;48.388;10.928;2022-12-20T03:51:36;9.90;;;5.90;;
17193;SDS011;8713;48.388;10.928;2022-12-20T03:53:07;10.02;;;6.07;;
17193;SDS011;8713;48.388;10.928;2022-12-20T03:54:37;11.38;;;6.32;;
17193;SDS011;8713;48.388;10.928;2022-12-20T03:56:33;7.82;;;5.03;;
17193;SDS011;8713;48.388;10.928;2022-12-20T03:58:03;11.43;;;6.00;;
17193;SDS011;8713;48.388;10.928;2022-12-20T03:59:35;11.18;;;5.95;;
17193;SDS011;8713;48.388;10.928;2022-12-20T04:01:23;10.77;;;6.13;;
17193;SDS011;8713;48.388;10.928;2022-12-20T04:02:57;9.43;;;5.32;;
17193;SDS011;8713;48.388;10.928;2022-12-20T04:04:27;9.65;;;5.85;;
17193;SDS011;8713;48.388;10.928;2022-12-20T04:05:56;8.95;;;5.78;;
17193;SDS011;8713;48.388;10.928;2022-12-20T04:07:26;13.15;;;6.65;;
17193;SDS011;8713;48.388;10.928;2022-12-20T04:08:56;11.07;;;6.10;;
17193;SDS011;8713;48.388;10.928;2022-12-20T04:10:31;11.27;;;6.18;;
17193;SDS011;8713;48.388;10.928;2022-12-20T04:12:01;13.25;;;6.65;;
17193;SDS011;8713;48.388;10.928;2022-12-20T04:13:33;12.35;;;7.53;;
17193;SDS011;8713;48.388;10.928;2022-12-20T04:15:03;12.93;;;7.18;;
17193;SDS011;8713;48.388;10.928;2022-12-20T04:16:33;12.25;;;6.25;;
17193;SDS011;8713;48.388;10.928;2022-12-20T04:18:03;11.73;;;5.95;;
17193;SDS011;8713;48.388;10.928;2022-12-20T04:19:33;9.70;;;6.20;;
17193;SDS011;8713;48.388;10.928;2022-12-20T04:21:04;11.55;;;6.55;;
17193;SDS011;8713;48.388;10.928;2022-12-20T04:22:36;12.90;;;6.78;;
17193;SDS011;8713;48.388;10.928;2022-12-20T04:24:08;11.35;;;6.13;;
17193;SDS011;8713;48.388;10.928;2022-12-20T04:25:45;11.23;;;6.20;;
17193;SDS011;8713;48.388;10.928;2022-12-20T04:27:14;10.55;;;6.43;;
17193;SDS011;8713;48.388;10.928;2022-12-20T04:28:45;10.23;;;6.25;;
17193;SDS011;8713;48.388;10.928;2022-12-20T04:30:14;9.93;;;5.85;;
17193;SDS011;8713;48.388;10.928;2022-12-20T04:31:44;10.88;;;5.80;;
17193;SDS011;8713;48.388;10.928;2022-12-20T04:33:14;10.82;;;6.55;;
17193;SDS011;8713;48.388;10.928;2022-12-20T04:34:43;9.77;;;6.38;;
17193;SDS011;8713;48.388;10.928;2022-12-20T04:36:13;9.73;;;5.82;;
17193;SDS011;8713;48.388;10.928;2022-12-20T04:37:43;9.20;;;5.40;;
17193;SDS011;8713;48.388;10.928;2022-12-20T04:39:13;8.88;;;5.15;;
17193;SDS011;8713;48.388;10.928;2022-12-20T04:41:06;8.30;;;4.90;;
17193;SDS011;8713;48.388;10.928;2022-12-20T04:42:46;8.18;;;4.55;;
17193;SDS011;8713;48.388;10.928;2022-12-20T04:44:17;6.30;;;4.28;;
17193;SDS011;8713;48.388;10.928;2022-12-20T04:45:48;7.82;;;5.13;;
17193;SDS011;8713;48.388;10.928;2022-12-20T04:47:19;7.22;;;4.63;;
17193;SDS011;8713;48.388;10.928;2022-12-20T04:48:48;9.15;;;5.28;;
17193;SDS011;8713;48.388;10.928;2022-12-20T04:50:18;7.70;;;5.20;;
17193;SDS011;8713;48.388;10.928;2022-12-20T04:51:48;8.02;;;5.00;;
17193;SDS011;8713;48.388;10.928;2022-12-20T04:53:20;7.43;;;4.78;;
17193;SDS011;8713;48.388;10.928;2022-12-20T04:55:09;6.80;;;4.15;;
17193;SDS011;8713;48.388;10.928;2022-12-20T04:56:38;7.30;;;4.50;;
17193;SDS011;8713;48.388;10.928;2022-12-20T04:58:12;8.60;;;5.20;;
17193;SDS011;8713;48.388;10.928;2022-12-20T04:59:43;7.90;;;4.43;;
17193;SDS011;8713;48.388;10.928;2022-12-20T05:01:14;7.72;;;4.30;;
17193;SDS011;8713;48.388;10.928;2022-12-20T05:02:50;8.25;;;4.72;;
17193;SDS011;8713;48.388;10.928;2022-12-20T05:04:22;7.60;;;4.55;;
17193;SDS011;8713;48.388;10.928;2022-12-20T05:05:52;7.53;;;5.05;;
17193;SDS011;8713;48.388;10.928;2022-12-20T05:07:22;10.35;;;5.85;;
17193;SDS011;8713;48.388;10.928;2022-12-20T05:08:57;9.35;;;6.03;;
17193;SDS011;8713;48.388;10.928;2022-12-20T05:10:27;9.63;;;6.40;;
17193;SDS011;8713;48.388;10.928;2022-12-20T05:11:57;7.05;;;4.68;;
17193;SDS011;8713;48.388;10.928;2022-12-20T05:13:27;7.07;;;4.55;;
17193;SDS011;8713;48.388;10.928;2022-12-20T05:14:57;9.38;;;5.53;;
17193;SDS011;8713;48.388;10.928;2022-12-20T05:16:27;9.57;;;5.57;;
17193;SDS011;8713;48.388;10.928;2022-12-20T05:17:57;6.75;;;4.93;;
17193;SDS011;8713;48.388;10.928;2022-12-20T05:19:30;8.88;;;6.32;;
17193;SDS011;8713;48.388;10.928;2022-12-20T05:21:00;9.63;;;6.53;;
17193;SDS011;8713;48.388;10.928;2022-12-20T05:22:52;7.50;;;5.07;;
17193;SDS011;8713;48.388;10.928;2022-12-20T05:24:42;8.20;;;5.22;;
17193;SDS011;8713;48.388;10.928;2022-12-20T05:26:34;7.60;;;4.88;;
17193;SDS011;8713;48.388;10.928;2022-12-20T05:28:06;8.02;;;4.65;;
17193;SDS011;8713;48.388;10.928;2022-12-20T05:29:38;7.63;;;4.22;;
17193;SDS011;8713;48.388;10.928;2022-12-20T05:31:08;6.38;;;4.18;;
17193;SDS011;8713;48.388;10.928;2022-12-20T05:32:38;7.88;;;4.65;;
17193;SDS011;8713;48.388;10.928;2022-12-20T05:34:08;7.97;;;4.95;;
17193;SDS011;8713;48.388;10.928;2022-12-20T05:35:40;7.72;;;4.75;;
17193;SDS011;8713;48.388;10.928;2022-12-20T05:37:14;7.45;;;4.78;;
17193;SDS011;8713;48.388;10.928;2022-12-20T05:38:45;8.35;;;5.10;;
17193;SDS011;8713;48.388;10.928;2022-12-20T05:40:19;10.90;;;5.30;;
17193;SDS011;8713;48.388;10.928;2022-12-20T05:41:48;7.05;;;4.53;;
17193;SDS011;8713;48.388;10.928;2022-12-20T05:43:19;9.13;;;4.72;;
17193;SDS011;8713;48.388;10.928;2022-12-20T05:44:49;9.45;;;4.97;;
17193;SDS011;8713;48.388;10.928;2022-12-20T05:46:19;7.90;;;4.63;;
17193;SDS011;8713;48.388;10.928;2022-12-20T05:48:00;7.05;;;4.43;;
17193;SDS011;8713;48.388;10.928;2022-12-20T05:49:30;8.25;;;4.57;;
17193;SDS011;8713;48.388;10.928;2022-12-20T05:56:42;6.35;;;3.88;;
17193;SDS011;8713;48.388;10.928;2022-12-20T05:58:12;7.70;;;4.88;;
17193;SDS011;8713;48.388;10.928;2022-12-20T05:59:51;11.50;;;5.22;;
17193;SDS011;8713;48.388;10.928;2022-12-20T06:01:25;9.93;;;5.78;;
17193;SDS011;8713;48.388;10.928;2022-12-20T06:02:59;12.18;;;6.05;;
17193;SDS011;8713;48.388;10.928;2022-12-20T06:04:30;9.10;;;5.65;;
17193;SDS011;8713;48.388;10.928;2022-12-20T06:06:00;9.90;;;5.00;;
17193;SDS011;8713;48.388;10.928;2022-12-20T06:07:32;12.52;;;5.10;;
17193;SDS011;8713;48.388;10.928;2022-12-20T06:09:03;11.18;;;5.85;;
17193;SDS011;8713;48.388;10.928;2022-12-20T06:10:41;13.80;;;5.90;;
17193;SDS011;8713;48.388;10.928;2022-12-20T06:12:10;12.07;;;5.57;;
17193;SDS011;8713;48.388;10.928;2022-12-20T06:13:41;13.68;;;5.57;;
17193;SDS011;8713;48.388;10.928;2022-12-20T06:15:11;9.35;;;4.63;;
17193;SDS011;8713;48.388;10.928;2022-12-20T06:16:44;6.85;;;4.75;;
17193;SDS011;8713;48.388;10.928;2022-12-20T06:18:15;8.95;;;4.75;;
17193;SDS011;8713;48.388;10.928;2022-12-20T06:19:45;7.47;;;4.28;;
17193;SDS011;8713;48.388;10.928;2022-12-20T06:21:18;7.88;;;4.38;;
17193;SDS011;8713;48.388;10.928;2022-12-20T06:22:47;9.77;;;4.88;;
17193;SDS011;8713;48.388;10.928;2022-12-20T06:24:18;9.75;;;4.93;;
17193;SDS011;8713;48.388;10.928;2022-12-20T06:25:50;11.18;;;5.90;;
17193;SDS011;8713;48.388;10.928;2022-12-20T06:27:20;11.02;;;5.75;;
17193;SDS011;8713;48.388;10.928;2022-12-20T06:28:57;10.95;;;6.43;;
17193;SDS011;8713;48.388;10.928;2022-12-20T06:30:38;10.15;;;5.60;;
17193;SDS011;8713;48.388;10.928;2022-12-20T06:31:49;10.52;;;5.47;;
17193;SDS011;8713;48.388;10.928;2022-12-20T06:33:02;10.20;;;5.70;;
17193;SDS011;8713;48.388;10.928;2022-12-20T06:34:30;10.07;;;5.25;;
17193;SDS011;8713;48.388;10.928;2022-12-20T06:35:59;11.05;;;6.20;;
17193;SDS011;8713;48.388;10.928;2022-12-20T06:37:27;42.55;;;21.27;;
17193;SDS011;8713;48.388;10.928;2022-12-20T06:38:55;36.10;;;20.05;;
17193;SDS011;8713;48.388;10.928;2022-12-20T06:40:24;35.53;;;21.95;;
17193;SDS011;8713;48.388;10.928;2022-12-20T06:41:52;40.15;;;24.20;;
17193;SDS011;8713;48.388;10.928;2022-12-20T06:43:08;37.92;;;22.40;;
17193;SDS011;8713;48.388;10.928;2022-12-20T06:44:36;32.05;;;19.30;;
17193;SDS011;8713;48.388;10.928;2022-12-20T06:46:04;15.27;;;9.40;;
17193;SDS011;8713;48.388;10.928;2022-12-20T06:47:34;10.23;;;6.53;;
17193;SDS011;8713;48.388;10.928;2022-12-20T06:49:03;8.15;;;5.53;;
17193;SDS011;8713;48.388;10.928;2022-12-20T06:50:33;8.52;;;5.55;;
17193;SDS011;8713;48.388;10.928;2022-12-20T06:52:01;10.70;;;6.20;;
17193;SDS011;8713;48.388;10.928;2022-12-20T06:53:42;10.00;;;6.00;;
17193;SDS011;8713;48.388;10.928;2022-12-20T06:55:10;9.27;;;5.43;;
17193;SDS011;8713;48.388;10.928;2022-12-20T06:56:41;10.80;;;6.20;;
17193;SDS011;8713;48.388;10.928;2022-12-20T06:58:11;10.43;;;5.95;;
17193;SDS011;8713;48.388;10.928;2022-12-20T06:59:40;7.75;;;5.00;;
17193;SDS011;8713;48.388;10.928;2022-12-20T07:01:02;9.63;;;5.57;;
17193;SDS011;8713;48.388;10.928;2022-12-20T07:02:18;8.25;;;5.20;;
17193;SDS011;8713;48.388;10.928;2022-12-20T07:03:47;8.82;;;5.63;;
17193;SDS011;8713;48.388;10.928;2022-12-20T07:05:15;7.97;;;5.40;;
17193;SDS011;8713;48.388;10.928;2022-12-20T07:06:45;10.18;;;5.20;;
17193;SDS011;8713;48.388;10.928;2022-12-20T07:08:12;8.52;;;5.13;;
17193;SDS011;8713;48.388;10.928;2022-12-20T07:09:41;7.60;;;4.63;;
17193;SDS011;8713;48.388;10.928;2022-12-20T07:10:50;10.65;;;5.88;;
17193;SDS011;8713;48.388;10.928;2022-12-20T07:12:02;9.60;;;5.50;;
17193;SDS011;8713;48.388;10.928;2022-12-20T07:13:13;9.43;;;5.53;;
17193;SDS011;8713;48.388;10.928;2022-12-20T07:14:22;10.35;;;6.38;;
17193;SDS011;8713;48.388;10.928;2022-12-20T07:15:31;8.95;;;5.78;;
17193;SDS011;8713;48.388;10.928;2022-12-20T07:16:41;10.00;;;5.70;;
17193;SDS011;8713;48.388;10.928;2022-12-20T07:17:51;8.93;;;5.70;;
17193;SDS011;8713;48.388;10.928;2022-12-20T07:19:00;8.80;;;5.63;;
17193;SDS011;8713;48.388;10.928;2022-12-20T07:20:10;10.55;;;5.45;;
17193;SDS011;8713;48.388;10.928;2022-12-20T07:21:39;7.35;;;4.70;;
17193;SDS011;8713;48.388;10.928;2022-12-20T07:23:08;8.88;;;4.97;;
17193;SDS011;8713;48.388;10.928;2022-12-20T07:24:17;9.43;;;5.57;;
17193;SDS011;8713;48.388;10.928;2022-12-20T07:25:55;9.13;;;4.95;;
17193;SDS011;8713;48.388;10.928;2022-12-20T07:27:25;7.82;;;5.05;;
17193;SDS011;8713;48.388;10.928;2022-12-20T07:28:54;6.97;;;4.32;;
17193;SDS011;8713;48.388;10.928;2022-12-20T07:30:03;7.72;;;4.80;;
17193;SDS011;8713;48.388;10.928;2022-12-20T07:31:32;11.38;;;5.28;;
17193;SDS011;8713;48.388;10.928;2022-12-20T07:33:00;7.28;;;4.78;;
17193;SDS011;8713;48.388;10.928;2022-12-20T07:34:28;8.63;;;4.93;;
17193;SDS011;8713;48.388;10.928;2022-12-20T07:36:03;9.65;;;5.07;;
17193;SDS011;8713;48.388;10.928;2022-12-20T07:37:33;11.27;;;5.65;;
17193;SDS011;8713;48.388;10.928;2022-12-20T07:39:01;7.82;;;4.57;;
17193;SDS011;8713;48.388;10.928;2022-12-20T07:40:29;7.60;;;4.85;;
17193;SDS011;8713;48.388;10.928;2022-12-20T07:41:58;7.70;;;4.20;;
17193;SDS011;8713;48.388;10.928;2022-12-20T07:43:26;7.80;;;3.97;;
17193;SDS011;8713;48.388;10.928;2022-12-20T07:44:36;6.93;;;4.10;;
17193;SDS011;8713;48.388;10.928;2022-12-20T07:46:04;6.97;;;4.15;;
17193;SDS011;8713;48.388;10.928;2022-12-20T07:47:15;7.55;;;4.20;;
17193;SDS011;8713;48.388;10.928;2022-12-20T07:48:43;7.70;;;4.18;;
17193;SDS011;8713;48.388;10.928;2022-12-20T07:49:58;6.63;;;4.30;;
17193;SDS011;8713;48.388;10.928;2022-12-20T07:51:28;6.70;;;4.20;;
17193;SDS011;8713;48.388;10.928;2022-12-20T07:53:04;9.15;;;3.80;;
17193;SDS011;8713;48.388;10.928;2022-12-20T07:54:34;5.72;;;4.13;;
17193;SDS011;8713;48.388;10.928;2022-12-20T07:55:50;7.57;;;4.25;;
17193;SDS011;8713;48.388;10.928;2022-12-20T07:57:24;7.20;;;4.15;;
17193;SDS011;8713;48.388;10.928;2022-12-20T07:58:39;6.40;;;4.28;;
17193;SDS011;8713;48.388;10.928;2022-12-20T07:59:51;8.63;;;5.38;;
17193;SDS011;8713;48.388;10.928;2022-12-20T08:01:02;9.80;;;5.28;;
17193;SDS011;8713;48.388;10.928;2022-12-20T08:02:13;8.63;;;5.78;;
17193;SDS011;8713;48.388;10.928;2022-12-20T08:03:27;9.75;;;5.38;;
17193;SDS011;8713;48.388;10.928;2022-12-20T08:04:40;9.45;;;5.13;;
17193;SDS011;8713;48.388;10.928;2022-12-20T08:05:50;11.05;;;5.78;;
17193;SDS011;8713;48.388;10.928;2022-12-20T08:07:03;8.60;;;5.53;;
17193;SDS011;8713;48.388;10.928;2022-12-20T08:08:12;13.35;;;5.63;;
17193;SDS011;8713;48.388;10.928;2022-12-20T08:09:21;9.80;;;5.75;;
17193;SDS011;8713;48.388;10.928;2022-12-20T08:10:32;9.50;;;5.63;;
17193;SDS011;8713;48.388;10.928;2022-12-20T08:11:42;10.73;;;6.22;;
17193;SDS011;8713;48.388;10.928;2022-12-20T08:12:53;8.68;;;5.40;;
17193;SDS011;8713;48.388;10.928;2022-12-20T08:14:03;8.60;;;5.15;;
17193;SDS011;8713;48.388;10.928;2022-12-20T08:15:14;9.38;;;5.47;;
17193;SDS011;8713;48.388;10.928;2022-12-20T08:16:23;8.95;;;5.32;;
17193;SDS011;8713;48.388;10.928;2022-12-20T08:17:33;8.68;;;5.35;;
17193;SDS011;8713;48.388;10.928;2022-12-20T08:18:42;10.88;;;5.68;;
17193;SDS011;8713;48.388;10.928;2022-12-20T08:20:11;9.40;;;5.40;;
17193;SDS011;8713;48.388;10.928;2022-12-20T08:21:39;9.63;;;5.30;;
17193;SDS011;8713;48.388;10.928;2022-12-20T08:23:08;10.23;;;5.53;;
17193;SDS011;8713;48.388;10.928;2022-12-20T08:24:37;10.32;;;5.20;;
17193;SDS011;8713;48.388;10.928;2022-12-20T08:26:07;9.10;;;5.82;;
17193;SDS011;8713;48.388;10.928;2022-12-20T08:27:37;9.20;;;5.50;;
17193;SDS011;8713;48.388;10.928;2022-12-20T08:29:06;9.43;;;5.38;;
17193;SDS011;8713;48.388;10.928;2022-12-20T08:30:37;10.25;;;6.05;;
17193;SDS011;8713;48.388;10.928;2022-12-20T08:32:06;11.85;;;6.00;;
17193;SDS011;8713;48.388;10.928;2022-12-20T08:33:37;10.90;;;6.32;;
17193;SDS011;8713;48.388;10.928;2022-12-20T08:35:08;11.15;;;5.60;;
17193;SDS011;8713;48.388;10.928;2022-12-20T08:36:37;8.43;;;4.72;;
17193;SDS011;8713;48.388;10.928;2022-12-20T08:38:07;10.52;;;6.00;;
17193;SDS011;8713;48.388;10.928;2022-12-20T08:39:36;8.15;;;4.90;;
17193;SDS011;8713;48.388;10.928;2022-12-20T08:41:10;7.55;;;4.80;;
17193;SDS011;8713;48.388;10.928;2022-12-20T08:42:41;10.18;;;5.93;;
17193;SDS011;8713;48.388;10.928;2022-12-20T08:44:11;7.80;;;5.30;;
17193;SDS011;8713;48.388;10.928;2022-12-20T08:45:41;9.90;;;6.18;;
17193;SDS011;8713;48.388;10.928;2022-12-20T08:47:11;10.10;;;6.88;;
17193;SDS011;8713;48.388;10.928;2022-12-20T08:48:40;9.18;;;5.97;;
17193;SDS011;8713;48.388;10.928;2022-12-20T08:50:10;8.93;;;5.80;;
17193;SDS011;8713;48.388;10.928;2022-12-20T08:51:40;9.43;;;5.45;;
17193;SDS011;8713;48.388;10.928;2022-12-20T08:53:09;9.40;;;5.45;;
17193;SDS011;8713;48.388;10.928;2022-12-20T08:54:39;51.70;;;24.65;;
17193;SDS011;8713;48.388;10.928;2022-12-20T08:56:13;46.15;;;27.98;;
17193;SDS011;8713;48.388;10.928;2022-12-20T08:57:44;20.90;;;12.90;;
17193;SDS011;8713;48.388;10.928;2022-12-20T08:59:14;12.23;;;7.35;;
17193;SDS011;8713;48.388;10.928;2022-12-20T09:00:43;9.85;;;6.32;;
17193;SDS011;8713;48.388;10.928;2022-12-20T09:02:14;9.60;;;5.90;;
17193;SDS011;8713;48.388;10.928;2022-12-20T09:03:43;10.23;;;5.82;;
17193;SDS011;8713;48.388;10.928;2022-12-20T09:05:14;8.63;;;5.03;;
17193;SDS011;8713;48.388;10.928;2022-12-20T09:06:43;10.75;;;6.00;;
17193;SDS011;8713;48.388;10.928;2022-12-20T09:08:13;10.02;;;5.90;;